createdAt,value
2019-04-23T00:02:30.540Z,52.06
2019-04-23T00:07:48.372Z,52.29
2019-04-23T00:12:49.791Z,52.11
2019-04-23T00:18:15.212Z,52.51
2019-04-23T00:23:07.777Z,52.48
2019-04-23T00:28:24.392Z,52.71
2019-04-23T00:43:41.005Z,53.35
2019-04-23T00:48:54.265Z,53.15
2019-04-23T00:53:43.799Z,53.65
2019-04-23T00:58:56.447Z,53.37
2019-04-23T01:04:18.585Z,53.96
2019-04-23T01:09:08.826Z,57.86
2019-04-23T01:14:20.263Z,58.96
2019-04-23T01:19:44.485Z,59.53
2019-04-23T01:24:34.464Z,60.63
2019-04-23T01:40:18.805Z,62.88
2019-04-23T01:45:24.217Z,62.79
2019-04-23T01:50:37.598Z,64.28
2019-04-23T01:55:44.074Z,67.26
2019-04-23T02:00:46.912Z,65.85
2019-04-23T02:11:02.929Z,66.14
2019-04-23T02:16:14.583Z,65.44
2019-04-23T02:21:36.602Z,67.42
2019-04-23T02:26:36.858Z,68.05
2019-04-23T02:42:20.848Z,64.58
2019-04-23T02:47:17.431Z,64.74
2019-04-23T02:52:21.248Z,65.25
2019-04-23T02:57:28.969Z,65.11
2019-04-23T03:02:41.360Z,64.57
2019-04-23T03:12:59.180Z,65.38
2019-04-23T03:23:34.380Z,67.19
2019-04-23T03:28:42.938Z,67.32
2019-04-23T03:43:46.564Z,67.54
2019-04-23T03:48:59.511Z,69.46
2019-04-23T03:54:31.924Z,69.60
2019-04-23T03:59:29.163Z,69.70
2019-04-23T04:14:46.710Z,66.82
2019-04-23T04:24:59.068Z,65.28
2019-04-23T04:40:33.155Z,66.37
2019-04-23T04:45:42.297Z,67.22
2019-04-23T04:50:49.305Z,64.27
2019-04-23T05:01:08.469Z,54.43
2019-04-23T05:11:19.643Z,64.04
2019-04-23T05:16:19.721Z,62.46
2019-04-23T05:21:26.535Z,65.06
2019-04-23T05:31:32.502Z,61.79
2019-04-23T05:36:49.884Z,55.72
2019-04-23T05:41:55.771Z,58.26
2019-04-23T05:47:00.558Z,53.34
2019-04-23T05:52:07.490Z,52.40
2019-04-23T05:57:13.737Z,50.93
2019-04-23T06:02:18.203Z,49.65
2019-04-23T06:12:42.299Z,47.17
2019-04-23T06:17:47.537Z,46.73
2019-04-23T06:28:01.793Z,47.52
2019-04-23T06:33:08.798Z,46.21
2019-04-23T06:38:34.420Z,48.21
2019-04-23T06:43:24.324Z,46.52
2019-04-23T06:48:35.155Z,47.55
2019-04-23T06:53:40.420Z,47.14
2019-04-23T06:58:43.250Z,46.27
2019-04-23T07:04:05.587Z,47.00
2019-04-23T07:14:22.978Z,45.40
2019-04-23T07:19:37.174Z,46.11
2019-04-23T07:24:21.494Z,46.31
2019-04-23T07:29:30.864Z,45.02
2019-04-23T07:34:41.468Z,43.09
2019-04-23T07:40:11.269Z,42.24
2019-04-23T07:45:12.507Z,42.08
2019-04-23T07:50:22.900Z,41.62
2019-04-23T07:55:36.255Z,40.49
2019-04-23T08:00:45.163Z,45.20
2019-04-23T08:05:49.734Z,48.40
2019-04-23T08:11:01.490Z,47.49
2019-04-23T08:15:57.406Z,45.22
2019-04-23T08:21:00.868Z,42.71
2019-04-23T08:36:51.822Z,44.39
2019-04-23T08:42:09.523Z,44.10
2019-04-23T08:47:17.181Z,44.02
2019-04-23T08:52:18.271Z,44.75
2019-04-23T09:08:05.198Z,46.33
2019-04-23T09:13:32.128Z,45.12
2019-04-23T09:17:57.848Z,43.82
2019-04-23T09:22:57.594Z,43.98
2019-04-23T09:28:09.106Z,44.93
2019-04-23T09:33:41.336Z,45.49
2019-04-23T09:38:45.085Z,45.29
2019-04-23T09:44:27.569Z,45.53
2019-04-23T09:49:20.858Z,47.42
2019-04-23T09:54:27.175Z,46.37
2019-04-23T10:04:23.539Z,47.21
2019-04-23T10:09:20.799Z,47.24
2019-04-23T10:14:28.287Z,46.96
2019-04-23T10:19:35.073Z,46.62
2019-04-23T10:24:43.440Z,46.52
2019-04-23T10:29:49.923Z,45.94
2019-04-23T10:40:05.732Z,46.22
2019-04-23T10:45:47.845Z,45.00
2019-04-23T10:56:18.312Z,45.86
2019-04-23T11:01:21.303Z,45.52
2019-04-23T11:06:36.822Z,45.58
2019-04-23T11:11:34.426Z,45.98
2019-04-23T11:26:57.998Z,46.71
2019-04-23T11:32:19.657Z,47.23
2019-04-23T11:37:23.158Z,47.26
2019-04-23T11:52:35.663Z,47.33
2019-04-23T11:57:56.851Z,47.31
2019-04-23T12:02:57.960Z,47.16
2019-04-23T12:13:28.382Z,46.89
2019-04-23T12:18:35.348Z,46.97
2019-04-23T12:23:50.326Z,46.63
2019-04-23T12:28:43.951Z,46.53
2019-04-23T12:33:55.340Z,47.07
2019-04-23T12:38:56.813Z,46.43
2019-04-23T12:44:14.888Z,47.39
2019-04-23T12:49:40.616Z,46.39
2019-04-23T12:54:31.800Z,47.12
2019-04-23T12:59:30.524Z,45.33
2019-04-23T13:04:43.920Z,45.93
2019-04-23T13:09:55.617Z,45.57
2019-04-23T13:14:56.020Z,46.92
2019-04-23T13:20:04.136Z,46.56
2019-04-23T13:25:15.990Z,45.39
2019-04-23T13:30:25.339Z,45.61
2019-04-23T13:40:39.481Z,47.22
2019-04-23T13:46:00.091Z,46.29
2019-04-23T13:56:03.739Z,46.54
2019-04-23T14:26:39.956Z,48.36
2019-04-23T14:31:53.289Z,47.38
2019-04-23T14:42:24.397Z,47.48
2019-04-23T14:57:35.118Z,49.85
2019-04-23T15:07:42.196Z,49.13
2019-04-23T15:26:15.740Z,50.83
2019-04-23T15:31:00.742Z,50.95
2019-04-23T15:36:12.779Z,51.42
2019-04-23T15:41:10.281Z,52.40
2019-04-23T15:46:24.123Z,51.63
2019-04-23T15:51:30.965Z,52.07
2019-04-23T15:56:35.930Z,52.48
2019-04-23T16:01:35.112Z,53.34
2019-04-23T16:06:20.987Z,53.77
2019-04-23T16:11:48.195Z,53.57
2019-04-23T16:17:05.093Z,53.92
2019-04-23T16:22:09.316Z,55.70
2019-04-23T16:27:11.048Z,54.85
2019-04-23T16:32:31.441Z,55.08
2019-04-23T16:37:28.854Z,56.19
2019-04-23T16:42:39.973Z,56.25
2019-04-23T16:47:49.055Z,57.06
2019-04-23T16:52:51.874Z,57.35
2019-04-23T16:58:08.446Z,57.53
2019-04-23T17:08:35.540Z,57.51
2019-04-23T17:13:21.170Z,57.83
2019-04-23T17:18:31.438Z,56.93
2019-04-23T17:29:00.363Z,56.06
2019-04-23T17:33:59.135Z,55.85
2019-04-23T17:39:08.186Z,56.01
2019-04-23T17:49:30.037Z,57.43
2019-04-23T17:54:53.489Z,56.44
2019-04-23T18:00:21.910Z,58.00
2019-04-23T18:05:11.061Z,55.48
2019-04-23T18:10:21.370Z,57.29
2019-04-23T18:15:09.581Z,56.91
2019-04-23T18:20:23.117Z,56.67
2019-04-23T18:25:31.831Z,59.39
2019-04-23T18:31:06.534Z,57.33
2019-04-23T18:36:02.436Z,56.17
2019-04-23T18:46:22.938Z,55.52
2019-04-23T18:51:20.950Z,56.31
2019-04-23T18:56:58.277Z,57.09
2019-04-23T19:01:50.144Z,58.05
2019-04-23T19:06:44.107Z,59.03
2019-04-23T19:12:16.054Z,58.48
2019-04-23T19:27:37.638Z,58.34
2019-04-23T19:32:43.613Z,58.88
2019-04-23T19:42:55.423Z,59.49
2019-04-23T19:53:32.212Z,59.75
2019-04-23T19:58:27.422Z,58.03
2019-04-23T20:08:49.414Z,58.28
2019-04-23T20:13:49.559Z,58.08
2019-04-23T20:24:04.665Z,58.95
2019-04-23T20:29:19.607Z,59.55
2019-04-23T20:39:32.729Z,59.17
2019-04-23T20:44:50.357Z,58.80
2019-04-23T20:49:48.561Z,59.12
2019-04-23T21:00:01.473Z,58.90
2019-04-23T21:05:10.215Z,59.17
2019-04-23T21:15:40.579Z,56.88
2019-04-23T21:31:02.255Z,55.60
2019-04-23T21:46:20.652Z,54.61
2019-04-23T21:51:38.484Z,53.60
2019-04-23T21:56:37.119Z,55.04
2019-04-23T22:01:43.609Z,55.01
2019-04-23T22:12:07.191Z,54.50
2019-04-23T22:17:10.235Z,54.77
2019-04-23T22:22:12.579Z,54.19
2019-04-23T22:27:16.236Z,54.25
2019-04-23T22:32:39.564Z,54.24
2019-04-23T22:37:46.308Z,54.06
2019-04-23T22:43:02.683Z,54.33
2019-04-23T22:47:58.445Z,53.43
2019-04-23T22:53:02.316Z,52.57
2019-04-23T23:03:27.717Z,51.41
2019-04-23T23:08:44.000Z,51.56
2019-04-23T23:14:01.111Z,50.59
2019-04-23T23:18:58.524Z,52.41
2019-04-23T23:24:00.156Z,55.11
2019-04-23T23:29:00.700Z,57.27
2019-04-23T23:39:22.695Z,60.72
2019-04-23T23:49:44.228Z,61.80
2019-04-23T23:54:45.171Z,61.96
